createdAt,value
2023-02-24T00:01:14.544Z,5.42
2023-02-24T00:03:41.120Z,5.42
2023-02-24T00:06:07.575Z,5.43
2023-02-24T00:08:34.038Z,5.45
2023-02-24T00:11:09.857Z,5.48
2023-02-24T00:13:36.475Z,5.51
2023-02-24T00:16:03.786Z,5.55
2023-02-24T00:18:30.988Z,5.59
2023-02-24T00:21:07.640Z,5.62
2023-02-24T00:23:34.814Z,5.64
2023-02-24T00:26:01.514Z,5.66
2023-02-24T00:28:28.353Z,5.68
2023-02-24T00:30:54.982Z,5.69
2023-02-24T00:33:21.632Z,5.72
2023-02-24T00:35:50.274Z,5.77
2023-02-24T00:38:17.055Z,5.81
2023-02-24T00:40:43.549Z,5.85
2023-02-24T00:43:10.874Z,5.87
2023-02-24T00:45:39.983Z,5.90
2023-02-24T00:48:06.482Z,5.92
2023-02-24T00:50:32.817Z,5.93
2023-02-24T00:52:59.209Z,5.92
2023-02-24T00:55:25.616Z,5.91
2023-02-24T00:57:52.820Z,5.91
2023-02-24T01:00:19.508Z,5.91
2023-02-24T01:02:49.155Z,5.91
2023-02-24T01:05:15.615Z,5.91
2023-02-24T01:07:41.971Z,5.91
2023-02-24T01:10:10.251Z,5.91
2023-02-24T01:12:38.110Z,5.90
2023-02-24T01:15:05.433Z,5.90
2023-02-24T01:17:34.396Z,5.90
2023-02-24T01:20:03.454Z,5.90
2023-02-24T01:22:29.888Z,5.90
2023-02-24T01:24:56.302Z,5.90
2023-02-24T01:27:22.767Z,5.91
2023-02-24T01:29:49.184Z,5.92
2023-02-24T01:32:17.081Z,5.94
2023-02-24T01:34:44.491Z,5.94
2023-02-24T01:37:11.150Z,5.95
2023-02-24T01:39:37.551Z,5.96
2023-02-24T01:42:04.585Z,5.98
2023-02-24T01:44:31.211Z,5.98
2023-02-24T01:46:58.637Z,5.98
2023-02-24T01:49:31.720Z,5.99
2023-02-24T01:51:58.171Z,5.98
2023-02-24T01:54:44.736Z,5.99
2023-02-24T01:57:16.649Z,6.00
2023-02-24T01:59:45.085Z,6.00
2023-02-24T02:02:31.898Z,6.00
2023-02-24T02:05:03.308Z,6.01
2023-02-24T02:07:38.181Z,6.01
2023-02-24T02:10:08.215Z,6.01
2023-02-24T02:12:35.792Z,6.00
2023-02-24T02:15:03.513Z,6.01
2023-02-24T02:17:55.871Z,6.02
2023-02-24T02:20:28.654Z,6.03
2023-02-24T02:22:55.061Z,6.03
2023-02-24T02:25:21.314Z,6.04
2023-02-24T02:28:05.947Z,6.05
2023-02-24T02:30:38.146Z,6.04
2023-02-24T02:33:17.217Z,6.05
2023-02-24T02:35:49.011Z,6.05
2023-02-24T02:38:43.424Z,6.04
2023-02-24T02:41:18.770Z,6.04
2023-02-24T02:43:50.208Z,6.04
2023-02-24T02:46:36.806Z,6.04
2023-02-24T02:49:25.576Z,6.04
2023-02-24T02:51:54.541Z,6.05
2023-02-24T02:54:35.783Z,6.04
2023-02-24T02:57:10.503Z,6.03
2023-02-24T02:59:39.736Z,6.02
2023-02-24T03:02:08.672Z,6.03
2023-02-24T03:04:35.470Z,6.03
2023-02-24T03:07:05.596Z,6.04
2023-02-24T03:09:35.008Z,6.04
2023-02-24T03:12:09.925Z,6.04
2023-02-24T03:14:43.077Z,6.04
2023-02-24T03:17:13.684Z,6.04
2023-02-24T03:19:40.802Z,6.02
2023-02-24T03:22:09.912Z,6.02
2023-02-24T03:24:36.434Z,6.02
2023-02-24T03:27:07.449Z,6.01
2023-02-24T03:29:34.785Z,6.00
2023-02-24T03:32:09.310Z,6.00
2023-02-24T03:34:41.889Z,6.00
2023-02-24T03:37:08.793Z,6.01
2023-02-24T03:39:35.353Z,6.01
2023-02-24T03:42:14.918Z,6.02
2023-02-24T03:44:41.382Z,6.02
2023-02-24T03:47:07.895Z,6.00
2023-02-24T03:49:34.872Z,6.00
2023-02-24T03:52:01.527Z,6.00
2023-02-24T03:54:27.971Z,6.01
2023-02-24T03:57:03.808Z,6.01
2023-02-24T03:59:35.037Z,6.01
2023-02-24T04:02:07.705Z,6.00
2023-02-24T04:04:40.231Z,5.99
2023-02-24T04:07:16.968Z,5.98
2023-02-24T04:10:02.029Z,5.96
2023-02-24T04:12:37.334Z,5.95
2023-02-24T04:15:11.239Z,5.94
2023-02-24T04:17:41.627Z,5.93
2023-02-24T04:20:10.107Z,5.92
2023-02-24T04:22:38.334Z,5.92
2023-02-24T04:25:06.316Z,5.90
2023-02-24T04:27:33.465Z,5.90
2023-02-24T04:30:11.290Z,5.88
2023-02-24T04:32:38.712Z,5.85
2023-02-24T04:35:05.989Z,5.80
2023-02-24T04:37:35.322Z,5.75
2023-02-24T04:40:01.909Z,5.71
2023-02-24T04:42:31.482Z,5.66
2023-02-24T04:44:58.191Z,5.62
2023-02-24T04:47:24.803Z,5.58
2023-02-24T04:49:51.216Z,5.56
2023-02-24T04:52:17.733Z,5.54
2023-02-24T04:54:46.368Z,5.52
2023-02-24T04:57:12.723Z,5.51
2023-02-24T04:59:39.202Z,5.48
2023-02-24T05:02:07.996Z,5.46
2023-02-24T05:04:35.211Z,5.45
2023-02-24T05:07:01.800Z,5.45
2023-02-24T05:09:28.344Z,5.44
2023-02-24T05:12:00.146Z,5.43
2023-02-24T05:14:27.103Z,5.42
2023-02-24T05:16:53.804Z,5.41
2023-02-24T05:19:22.813Z,5.39
2023-02-24T05:21:49.260Z,5.39
2023-02-24T05:24:15.732Z,5.39
2023-02-24T05:26:42.107Z,5.39
2023-02-24T05:29:10.053Z,5.39
2023-02-24T05:31:36.507Z,5.39
2023-02-24T05:34:06.569Z,5.39
2023-02-24T05:36:34.616Z,5.40
2023-02-24T05:39:01.364Z,5.39
2023-02-24T05:41:35.033Z,5.40
2023-02-24T05:44:02.937Z,5.40
2023-02-24T05:46:31.043Z,5.40
2023-02-24T05:49:01.470Z,5.40
2023-02-24T05:51:31.070Z,5.41
2023-02-24T05:53:58.023Z,5.41
2023-02-24T05:56:24.516Z,5.42
2023-02-24T05:58:54.816Z,5.43
2023-02-24T06:01:23.556Z,5.43
2023-02-24T06:03:55.549Z,5.44
2023-02-24T06:06:29.628Z,5.45
2023-02-24T06:09:04.764Z,5.46
2023-02-24T06:11:34.168Z,5.46
2023-02-24T06:14:01.322Z,5.48
2023-02-24T06:16:33.158Z,5.49
2023-02-24T06:19:07.761Z,5.50
2023-02-24T06:21:34.955Z,5.52
2023-02-24T06:24:04.667Z,5.53
2023-02-24T06:26:34.150Z,5.52
2023-02-24T06:29:02.759Z,5.53
2023-02-24T06:31:29.258Z,5.55
2023-02-24T06:33:55.730Z,5.55
2023-02-24T06:36:22.181Z,5.56
2023-02-24T06:38:48.675Z,5.57
2023-02-24T06:41:15.387Z,5.58
2023-02-24T06:43:43.083Z,5.58
2023-02-24T06:46:11.071Z,5.58
2023-02-24T06:48:37.746Z,5.57
2023-02-24T06:51:08.089Z,5.56
2023-02-24T06:53:34.451Z,5.56
2023-02-24T06:56:05.077Z,5.56
2023-02-24T06:58:32.507Z,5.57
2023-02-24T07:00:58.934Z,5.57
2023-02-24T07:03:27.725Z,5.59
2023-02-24T07:05:54.530Z,5.60
2023-02-24T07:08:22.415Z,5.61
2023-02-24T07:10:56.448Z,5.62
2023-02-24T07:13:26.683Z,5.63
2023-02-24T07:15:53.078Z,5.64
2023-02-24T07:18:19.722Z,5.64
2023-02-24T07:20:46.349Z,5.67
2023-02-24T07:23:13.761Z,5.71
2023-02-24T07:25:41.351Z,5.73
2023-02-24T07:28:08.464Z,5.75
2023-02-24T07:30:35.104Z,5.77
2023-02-24T07:33:02.123Z,5.80
2023-02-24T07:35:29.031Z,5.83
2023-02-24T07:37:55.554Z,5.84
2023-02-24T07:40:22.290Z,5.85
2023-02-24T07:42:48.954Z,5.85
2023-02-24T07:45:18.048Z,5.85
2023-02-24T07:47:44.644Z,5.84
2023-02-24T07:50:12.075Z,5.85
2023-02-24T07:52:38.848Z,5.85
2023-02-24T07:55:05.773Z,5.85
2023-02-24T07:57:32.176Z,5.85
2023-02-24T07:59:58.732Z,5.86
2023-02-24T08:02:26.180Z,5.86
2023-02-24T08:04:53.041Z,5.88
2023-02-24T08:07:19.964Z,5.92
2023-02-24T08:09:46.807Z,5.95
2023-02-24T08:12:18.371Z,5.99
2023-02-24T08:14:45.707Z,6.06
2023-02-24T08:17:12.094Z,6.11
2023-02-24T08:19:38.769Z,6.19
2023-02-24T08:22:11.263Z,6.29
2023-02-24T08:24:37.974Z,6.39
2023-02-24T08:27:04.683Z,6.44
2023-02-24T08:29:31.626Z,6.47
2023-02-24T08:31:58.161Z,6.49
2023-02-24T08:34:24.731Z,6.49
2023-02-24T08:36:51.425Z,6.45
2023-02-24T08:39:18.312Z,6.43
2023-02-24T08:41:44.965Z,6.42
2023-02-24T08:44:12.415Z,6.39
2023-02-24T08:46:39.590Z,6.40
2023-02-24T08:49:06.248Z,6.39
2023-02-24T08:51:35.937Z,6.39
2023-02-24T08:54:05.216Z,6.40
2023-02-24T08:56:32.100Z,6.42
2023-02-24T08:58:59.656Z,6.46
2023-02-24T09:01:30.755Z,6.50
2023-02-24T09:03:58.329Z,6.52
2023-02-24T09:06:36.968Z,6.53
2023-02-24T09:09:04.516Z,6.54
2023-02-24T09:11:30.860Z,6.56
2023-02-24T09:13:57.249Z,6.58
2023-02-24T09:16:24.325Z,6.61
2023-02-24T09:18:53.596Z,6.61
2023-02-24T09:21:22.888Z,6.60
2023-02-24T09:23:49.744Z,6.63
2023-02-24T09:26:18.475Z,6.63
2023-02-24T09:28:45.210Z,6.63
2023-02-24T09:31:11.921Z,6.64
2023-02-24T09:33:40.841Z,6.63
2023-02-24T09:36:08.747Z,6.64
2023-02-24T09:38:39.498Z,6.67
2023-02-24T09:41:18.835Z,6.70
2023-02-24T09:43:45.964Z,6.73
2023-02-24T09:46:13.121Z,6.75
2023-02-24T09:48:54.695Z,6.77
2023-02-24T09:51:24.027Z,6.80
2023-02-24T09:53:53.249Z,6.79
2023-02-24T09:56:26.519Z,6.79
2023-02-24T09:58:59.544Z,6.76
2023-02-24T10:01:26.246Z,6.74
2023-02-24T10:04:20.786Z,6.73
2023-02-24T10:07:02.198Z,6.75
2023-02-24T10:09:38.271Z,6.80
2023-02-24T10:12:25.076Z,6.82
2023-02-24T10:15:00.394Z,6.85
2023-02-24T10:17:47.225Z,6.87
2023-02-24T10:20:37.065Z,6.91
2023-02-24T10:23:14.309Z,6.99
2023-02-24T10:25:57.047Z,7.06
2023-02-24T10:28:53.013Z,7.12
2023-02-24T10:31:20.002Z,7.16
2023-02-24T10:34:13.043Z,7.16
2023-02-24T10:36:39.698Z,7.18
2023-02-24T10:39:14.209Z,7.17
2023-02-24T10:41:44.127Z,7.17
2023-02-24T10:44:11.592Z,7.14
2023-02-24T10:46:42.126Z,7.19
2023-02-24T10:49:11.540Z,7.39
2023-02-24T10:51:40.617Z,7.64
2023-02-24T10:54:10.663Z,7.88
2023-02-24T10:56:43.266Z,8.08
2023-02-24T10:59:20.717Z,8.16
2023-02-24T11:01:52.698Z,8.12
2023-02-24T11:04:20.634Z,8.04
2023-02-24T11:06:47.602Z,7.99
2023-02-24T11:09:18.441Z,8.02
2023-02-24T11:11:46.191Z,8.03
2023-02-24T11:14:15.213Z,8.05
2023-02-24T11:16:47.486Z,8.13
2023-02-24T11:19:14.580Z,8.54
2023-02-24T11:21:42.775Z,9.46
2023-02-24T11:24:13.428Z,10.52
2023-02-24T11:26:40.850Z,11.56
2023-02-24T11:29:25.756Z,11.85
2023-02-24T11:32:07.948Z,11.70
2023-02-24T11:34:43.013Z,11.42
2023-02-24T11:37:09.397Z,11.05
2023-02-24T11:39:36.201Z,10.67
2023-02-24T11:42:07.188Z,10.32
2023-02-24T11:44:38.380Z,10.08
2023-02-24T11:47:12.818Z,9.84
2023-02-24T11:49:53.181Z,9.66
2023-02-24T11:52:31.031Z,9.42
2023-02-24T11:54:59.248Z,9.18
2023-02-24T11:57:29.080Z,9.03
2023-02-24T12:00:07.126Z,8.89
2023-02-24T12:03:03.616Z,8.82
2023-02-24T12:05:33.717Z,8.85
2023-02-24T12:08:11.313Z,9.03
2023-02-24T12:10:40.687Z,9.38
2023-02-24T12:13:10.258Z,9.79
2023-02-24T12:15:55.538Z,10.10
2023-02-24T12:18:34.126Z,11.05
2023-02-24T12:21:04.927Z,11.29
2023-02-24T12:23:42.994Z,11.23
2023-02-24T12:26:24.549Z,11.10
2023-02-24T12:29:01.788Z,10.90
2023-02-24T12:31:28.573Z,10.64
2023-02-24T12:34:02.201Z,10.48
2023-02-24T12:36:41.070Z,10.33
2023-02-24T12:39:10.658Z,10.13
2023-02-24T12:41:49.216Z,9.94
2023-02-24T12:44:29.773Z,9.67
2023-02-24T12:47:04.930Z,9.45
2023-02-24T12:49:31.468Z,9.24
2023-02-24T12:52:07.223Z,9.04
2023-02-24T12:54:39.767Z,8.84
2023-02-24T12:57:14.361Z,8.68
2023-02-24T12:59:41.338Z,8.54
2023-02-24T13:02:17.231Z,8.42
2023-02-24T13:05:02.259Z,8.34
2023-02-24T13:07:31.519Z,8.39
2023-02-24T13:10:18.524Z,8.52
2023-02-24T13:12:59.657Z,8.66
2023-02-24T13:15:27.277Z,8.72
2023-02-24T13:17:56.346Z,8.78
2023-02-24T13:20:29.367Z,8.87
2023-02-24T13:22:57.305Z,9.03
2023-02-24T13:25:30.273Z,9.05
2023-02-24T13:27:58.584Z,9.00
2023-02-24T13:30:27.072Z,8.88
2023-02-24T13:33:22.934Z,8.76
2023-02-24T13:36:07.219Z,8.60
2023-02-24T13:38:35.257Z,8.50
2023-02-24T13:41:18.850Z,8.42
2023-02-24T13:44:02.600Z,8.36
2023-02-24T13:46:34.877Z,8.29
2023-02-24T13:49:10.382Z,8.25
2023-02-24T13:51:51.797Z,8.20
2023-02-24T13:54:44.505Z,8.15
2023-02-24T13:57:16.965Z,8.05
2023-02-24T13:59:49.365Z,8.04
2023-02-24T14:02:17.347Z,8.05
2023-02-24T14:04:52.680Z,8.10
2023-02-24T14:07:26.580Z,8.16
2023-02-24T14:10:15.374Z,8.16
2023-02-24T14:12:44.781Z,8.13
2023-02-24T14:15:14.336Z,8.14
2023-02-24T14:17:53.435Z,8.11
2023-02-24T14:20:23.195Z,8.05
2023-02-24T14:22:53.938Z,7.98
2023-02-24T14:25:27.896Z,7.92
2023-02-24T14:28:02.542Z,7.85
2023-02-24T14:30:36.114Z,7.79
2023-02-24T14:33:04.569Z,7.73
2023-02-24T14:35:41.647Z,7.66
2023-02-24T14:38:27.643Z,7.63
2023-02-24T14:40:54.489Z,7.61
2023-02-24T14:43:21.398Z,7.54
2023-02-24T14:45:49.772Z,7.45
2023-02-24T14:48:25.896Z,7.38
2023-02-24T14:50:55.088Z,7.32
2023-02-24T14:53:22.992Z,7.24
2023-02-24T14:55:50.984Z,7.18
2023-02-24T14:58:33.461Z,7.12
2023-02-24T15:01:03.563Z,7.05
2023-02-24T15:03:30.237Z,7.01
2023-02-24T15:05:58.922Z,6.97
2023-02-24T15:08:25.473Z,6.95
2023-02-24T15:10:52.460Z,6.97
2023-02-24T15:13:32.189Z,7.03
2023-02-24T15:16:04.589Z,7.10
2023-02-24T15:18:31.125Z,7.12
2023-02-24T15:21:02.546Z,7.26
2023-02-24T15:23:34.277Z,7.46
2023-02-24T15:26:01.314Z,7.58
2023-02-24T15:28:29.641Z,7.63
2023-02-24T15:31:10.539Z,7.60
2023-02-24T15:33:42.081Z,7.50
2023-02-24T15:36:11.218Z,7.36
2023-02-24T15:38:39.439Z,7.25
2023-02-24T15:41:07.108Z,7.15
2023-02-24T15:43:35.191Z,7.08
2023-02-24T15:46:12.711Z,7.01
2023-02-24T15:48:41.971Z,6.94
2023-02-24T15:51:17.591Z,6.89
2023-02-24T15:53:47.559Z,6.84
2023-02-24T15:56:14.117Z,6.80
2023-02-24T15:58:43.299Z,6.75
2023-02-24T16:01:10.703Z,6.72
2023-02-24T16:03:37.247Z,6.69
2023-02-24T16:06:04.309Z,6.65
2023-02-24T16:08:31.157Z,6.61
2023-02-24T16:10:57.555Z,6.59
2023-02-24T16:13:25.934Z,6.55
2023-02-24T16:15:53.154Z,6.50
2023-02-24T16:18:22.399Z,6.44
2023-02-24T16:20:49.627Z,6.39
2023-02-24T16:23:16.341Z,6.34
2023-02-24T16:25:43.577Z,6.26
2023-02-24T16:28:14.689Z,6.19
2023-02-24T16:30:41.541Z,6.13
2023-02-24T16:33:12.329Z,6.09
2023-02-24T16:35:45.055Z,6.06
2023-02-24T16:38:12.981Z,6.05
2023-02-24T16:40:40.831Z,6.03
2023-02-24T16:43:07.861Z,5.99
2023-02-24T16:45:34.655Z,5.93
2023-02-24T16:48:04.761Z,5.89
2023-02-24T16:50:33.183Z,5.89
2023-02-24T16:53:00.020Z,5.89
2023-02-24T16:55:26.887Z,5.92
2023-02-24T16:57:55.854Z,5.94
2023-02-24T17:00:24.221Z,5.97
2023-02-24T17:02:54.145Z,5.99
2023-02-24T17:05:24.462Z,6.01
2023-02-24T17:07:53.651Z,6.03
2023-02-24T17:10:21.189Z,6.06
2023-02-24T17:12:47.826Z,6.08
2023-02-24T17:15:15.807Z,6.10
2023-02-24T17:17:42.871Z,6.12
2023-02-24T17:20:14.284Z,6.14
2023-02-24T17:22:42.367Z,6.17
2023-02-24T17:25:16.022Z,6.18
2023-02-24T17:27:42.537Z,6.19
2023-02-24T17:30:38.054Z,6.19
2023-02-24T17:33:18.074Z,6.19
2023-02-24T17:36:02.012Z,6.20
2023-02-24T17:38:39.140Z,6.19
2023-02-24T17:41:05.679Z,6.13
2023-02-24T17:43:32.144Z,6.09
2023-02-24T17:46:02.075Z,6.06
2023-02-24T17:48:30.196Z,6.01
2023-02-24T17:50:58.785Z,5.94
2023-02-24T17:53:25.373Z,5.90
2023-02-24T17:56:02.891Z,5.87
2023-02-24T17:58:30.025Z,5.83
2023-02-24T18:00:59.040Z,5.77
2023-02-24T18:03:25.722Z,5.69
2023-02-24T18:06:12.381Z,5.62
2023-02-24T18:08:39.295Z,5.53
2023-02-24T18:11:06.486Z,5.44
2023-02-24T18:13:33.453Z,5.33
2023-02-24T18:16:00.257Z,5.24
2023-02-24T18:18:27.553Z,5.19
2023-02-24T18:20:59.540Z,5.13
2023-02-24T18:23:29.256Z,5.08
2023-02-24T18:26:05.667Z,5.06
2023-02-24T18:28:32.569Z,5.06
2023-02-24T18:30:59.589Z,5.08
2023-02-24T18:33:26.923Z,5.09
2023-02-24T18:36:01.250Z,5.12
2023-02-24T18:38:28.629Z,5.14
2023-02-24T18:40:58.982Z,5.15
2023-02-24T18:43:26.357Z,5.17
2023-02-24T18:46:01.046Z,5.18
2023-02-24T18:48:29.574Z,5.18
2023-02-24T18:50:57.603Z,5.19
2023-02-24T18:53:26.758Z,5.20
2023-02-24T18:56:01.610Z,5.19
2023-02-24T18:58:31.152Z,5.17
2023-02-24T19:00:59.607Z,5.16
2023-02-24T19:03:27.918Z,5.17
2023-02-24T19:05:55.093Z,5.17
2023-02-24T19:08:22.726Z,5.18
2023-02-24T19:10:50.574Z,5.20
2023-02-24T19:13:17.776Z,5.21
2023-02-24T19:15:45.631Z,5.19
2023-02-24T19:18:18.447Z,5.17
2023-02-24T19:20:48.408Z,5.16
2023-02-24T19:23:17.710Z,5.14
2023-02-24T19:25:47.833Z,5.12
2023-02-24T19:28:17.240Z,5.07
2023-02-24T19:30:45.390Z,5.05
2023-02-24T19:33:13.347Z,5.04
2023-02-24T19:35:43.180Z,5.04
2023-02-24T19:38:13.954Z,5.01
2023-02-24T19:40:41.188Z,4.98
2023-02-24T19:43:08.164Z,4.97
2023-02-24T19:45:34.825Z,4.95
2023-02-24T19:48:01.527Z,4.92
2023-02-24T19:50:28.086Z,4.90
2023-02-24T19:52:57.105Z,4.90
2023-02-24T19:55:26.361Z,4.89
2023-02-24T19:57:53.751Z,4.88
2023-02-24T20:00:25.422Z,4.87
2023-02-24T20:02:52.932Z,4.87
2023-02-24T20:05:19.814Z,4.86
2023-02-24T20:07:46.924Z,4.85
2023-02-24T20:10:17.240Z,4.84
2023-02-24T20:12:43.870Z,4.83
2023-02-24T20:15:12.233Z,4.83
2023-02-24T20:17:39.966Z,4.82
2023-02-24T20:20:32.693Z,4.82
2023-02-24T20:22:59.717Z,4.82
2023-02-24T20:25:26.304Z,4.83
2023-02-24T20:27:54.524Z,4.83
2023-02-24T20:30:21.408Z,4.83
2023-02-24T20:32:48.297Z,4.82
2023-02-24T20:37:56.230Z,4.80
2023-02-24T20:40:32.604Z,4.79
2023-02-24T20:43:08.881Z,4.78
2023-02-24T20:45:58.151Z,4.79
2023-02-24T20:48:26.006Z,4.78
2023-02-24T20:51:17.073Z,4.78
2023-02-24T20:54:04.465Z,4.78
2023-02-24T20:56:34.556Z,4.76
2023-02-24T20:59:19.541Z,4.75
2023-02-24T21:01:50.306Z,4.76
2023-02-24T21:04:19.137Z,4.74
2023-02-24T21:06:45.822Z,4.71
2023-02-24T21:09:12.961Z,4.68
2023-02-24T21:17:44.790Z,4.68
2023-02-24T21:20:25.623Z,4.68
2023-02-24T21:23:20.374Z,4.70
2023-02-24T22:06:47.137Z,4.82
2023-02-24T22:09:24.571Z,4.86
2023-02-24T22:12:11.381Z,4.90
2023-02-24T22:14:48.433Z,4.91
2023-02-24T22:17:48.585Z,4.92
2023-02-24T22:20:33.886Z,4.95
2023-02-24T22:23:02.081Z,4.97
2023-02-24T22:25:45.431Z,4.99
2023-02-24T22:28:12.504Z,4.98
2023-02-24T22:30:59.371Z,4.97
2023-02-24T22:33:27.140Z,4.97
2023-02-24T22:36:01.754Z,4.96
2023-02-24T22:38:33.263Z,4.96
2023-02-24T22:41:13.334Z,4.95
2023-02-24T22:43:41.368Z,4.95
2023-02-24T22:46:33.358Z,4.95
2023-02-24T22:49:00.389Z,4.96
2023-02-24T22:51:34.012Z,4.96
2023-02-24T22:54:07.672Z,4.97
2023-02-24T22:56:34.323Z,4.99
2023-02-24T22:59:23.142Z,5.02
2023-02-24T23:01:50.055Z,5.05
2023-02-24T23:04:37.366Z,5.08
2023-02-24T23:07:04.092Z,5.10
2023-02-24T23:09:35.297Z,5.12
2023-02-24T23:12:04.410Z,5.12
2023-02-24T23:14:30.894Z,5.11
2023-02-24T23:16:59.908Z,5.11
2023-02-24T23:19:26.721Z,5.11
2023-02-24T23:21:53.678Z,5.11
2023-02-24T23:24:20.411Z,5.11
2023-02-24T23:26:49.638Z,5.11
2023-02-24T23:29:18.515Z,5.12
2023-02-24T23:31:45.350Z,5.13
2023-02-24T23:34:12.123Z,5.13
2023-02-24T23:36:39.952Z,5.14
2023-02-24T23:39:07.088Z,5.16
2023-02-24T23:41:34.605Z,5.17
2023-02-24T23:44:04.086Z,5.20
2023-02-24T23:46:31.618Z,5.21
2023-02-24T23:49:08.947Z,5.22
2023-02-24T23:51:47.501Z,5.23
2023-02-24T23:54:18.542Z,5.23
2023-02-24T23:56:45.197Z,5.24
2023-02-24T23:59:15.217Z,5.26
